Time;durP1;ratioP1;P1;durP2;ratioP2;P2;SDS_P1;SDS_P2;PMS_P1;PMS_P2;Temp;Humidity;BMP_temperature;BMP_pressure;BME280_temperature;BME280_humidity;BME280_pressure;Samples;Min_cycle;Max_cycle;Signal;HPM_P1;HPM_P2
2022/05/19 00:01:58;;;;;;;7.25;5.00;;;;;;;19.83;65.31;100816.06;5044884;28;20101;-78
2022/05/19 00:04:26;;;;;;;6.68;5.35;;;;;;;19.76;66.12;100812.16;5022867;28;20232;-81
2022/05/19 00:06:53;;;;;;;6.88;5.30;;;;;;;19.71;66.42;100813.50;5042749;28;20110;-78
2022/05/19 00:09:20;;;;;;;8.43;5.45;;;;;;;19.61;66.78;100808.84;5046604;28;20141;-78
2022/05/19 00:11:48;;;;;;;9.20;5.57;;;;;;;19.56;67.27;100810.16;5048183;28;20052;-78
2022/05/19 00:14:15;;;;;;;7.18;5.35;;;;;;;19.43;67.07;100790.59;5049584;28;20091;-78
2022/05/19 00:16:43;;;;;;;6.03;5.22;;;;;;;19.46;67.65;100799.25;5045526;28;20075;-79
2022/05/19 00:19:11;;;;;;;7.35;5.25;;;;;;;19.45;67.56;100800.22;5046337;28;20040;-79
2022/05/19 00:21:39;;;;;;;7.40;5.68;;;;;;;19.42;67.85;100805.84;5043828;28;20129;-79
2022/05/19 00:24:07;;;;;;;10.80;5.57;;;;;;;19.31;68.09;100778.09;5044773;28;20153;-78
2022/05/19 00:26:34;;;;;;;6.80;5.75;;;;;;;19.37;68.53;100807.16;5043207;28;20083;-79
2022/05/19 00:29:01;;;;;;;10.48;5.50;;;;;;;19.33;69.09;100814.63;5050503;28;20048;-79
2022/05/19 00:31:29;;;;;;;8.02;5.82;;;;;;;19.24;69.29;100809.94;5050360;28;20049;-78
2022/05/19 00:33:56;;;;;;;6.93;5.55;;;;;;;19.26;69.24;100816.03;5051007;28;20057;-79
2022/05/19 00:36:23;;;;;;;6.25;5.10;;;;;;;19.26;68.92;100806.16;5052314;28;20445;-76
2022/05/19 00:38:50;;;;;;;7.97;5.55;;;;;;;19.26;68.68;100803.47;5049878;28;20080;-78
2022/05/19 00:41:17;;;;;;;7.03;5.38;;;;;;;19.20;68.81;100801.25;5043650;28;20149;-78
2022/05/19 00:43:46;;;;;;;7.13;5.40;;;;;;;19.21;68.13;100796.75;5044603;28;20515;-79
2022/05/19 00:46:13;;;;;;;7.28;5.03;;;;;;;19.12;68.01;100784.03;5044939;28;20072;-77
2022/05/19 00:48:50;;;;;;;5.78;5.15;;;;;;;19.10;67.96;100772.56;5041522;28;20864;-77
2022/05/19 00:51:19;;;;;;;7.00;5.30;;;;;;;19.09;67.88;100781.56;5043813;28;20069;-78
2022/05/19 00:53:51;;;;;;;8.73;5.40;;;;;;;19.20;67.89;100801.25;5040629;28;20072;-79
2022/05/19 00:56:34;;;;;;;7.93;5.15;;;;;;;19.17;68.46;100789.91;5046600;28;20108;-79
2022/05/19 00:59:08;;;;;;;7.93;5.57;;;;;;;19.05;68.24;100778.25;5047418;28;20044;-77
2022/05/19 01:01:39;;;;;;;7.25;5.20;;;;;;;19.14;68.27;100801.75;5024794;28;20116;-79
2022/05/19 01:04:18;;;;;;;8.27;5.50;;;;;;;18.97;69.22;100777.16;5026856;28;20053;-78
2022/05/19 01:06:47;;;;;;;7.68;5.45;;;;;;;19.00;69.34;100799.25;5038811;28;20045;-79
2022/05/19 01:09:15;;;;;;;7.80;5.40;;;;;;;18.99;69.23;100794.84;4995356;28;1211464;-79
2022/05/19 01:11:43;;;;;;;8.77;6.07;;;;;;;18.95;70.05;100796.03;5035862;28;20136;-79
2022/05/19 01:14:11;;;;;;;6.95;5.30;;;;;;;18.82;70.53;100789.91;5041762;28;20168;-79
2022/05/19 01:20:22;;;;;;;8.05;5.35;;;;;;;18.69;71.37;100794.47;5044443;28;20128;-78
2022/05/19 01:23:19;;;;;;;9.15;5.75;;;;;;;18.56;71.02;100781.94;5039414;28;20072;-79
2022/05/19 01:26:12;;;;;;;7.18;5.65;;;;;;;18.63;71.51;100797.59;5042128;28;20045;-80
2022/05/19 01:28:39;;;;;;;11.25;6.00;;;;;;;18.62;71.57;100785.16;5041472;28;20136;-77
2022/05/19 01:31:05;;;;;;;8.50;5.30;;;;;;;18.63;71.50;100795.78;5043138;28;20110;-79
2022/05/19 01:33:32;;;;;;;6.50;5.55;;;;;;;18.55;71.77;100784.72;5047076;28;20076;-79
2022/05/19 01:35:59;;;;;;;9.05;5.95;;;;;;;18.59;72.37;100786.22;5061381;28;20103;-78
2022/05/19 01:38:30;;;;;;;7.38;5.60;;;;;;;18.57;72.46;100793.53;5051761;28;20414;-79
2022/05/19 01:41:17;;;;;;;9.45;5.90;;;;;;;18.52;72.37;100793.84;5048819;28;20045;-79
2022/05/19 01:44:01;;;;;;;5.93;5.30;;;;;;;18.50;72.18;100787.75;5042857;28;20045;-77
2022/05/19 01:46:34;;;;;;;9.30;6.40;;;;;;;18.43;72.16;100781.09;5047518;28;20053;-80
2022/05/19 01:49:30;;;;;;;7.18;5.57;;;;;;;18.44;72.42;100790.88;5044707;28;20497;-78
2022/05/19 01:52:12;;;;;;;6.53;5.90;;;;;;;18.43;72.58;100789.16;5042180;28;20056;-78
2022/05/19 01:54:48;;;;;;;7.25;5.90;;;;;;;18.37;72.85;100789.63;5041451;28;20041;-78
2022/05/19 01:57:22;;;;;;;6.40;5.68;;;;;;;18.35;73.09;100796.06;5043931;28;20052;-79
2022/05/19 01:59:54;;;;;;;10.70;5.68;;;;;;;18.30;73.44;100796.38;5042826;28;20480;-80
2022/05/19 02:02:39;;;;;;;8.93;6.03;;;;;;;18.22;73.44;100796.94;5042936;28;20045;-77
2022/05/19 02:05:39;;;;;;;7.07;5.47;;;;;;;18.08;73.56;100778.34;5045166;28;20080;-78
2022/05/19 02:08:12;;;;;;;;;;;;;;;18.18;73.71;100786.56;5038803;28;20421;-77
2022/05/19 02:10:44;;;;;;;5.70;5.03;;;;;;;18.15;73.06;100784.09;5043230;28;19921;-77
2022/05/19 02:13:11;;;;;;;6.57;5.70;;;;;;;18.19;72.99;100786.44;5051533;28;20056;-79
2022/05/19 02:15:42;;;;;;;7.15;5.45;;;;;;;18.21;72.94;100797.91;5043234;28;20045;-77
2022/05/19 02:18:09;;;;;;;5.43;4.90;;;;;;;18.24;72.33;100796.84;5051110;28;20048;-77
2022/05/19 02:20:37;;;;;;;7.18;5.28;;;;;;;18.08;71.56;100764.94;5047023;28;20144;-79
2022/05/19 02:23:05;;;;;;;6.40;5.50;;;;;;;18.21;72.08;100783.66;5052579;28;20108;-77
2022/05/19 02:25:45;;;;;;;5.90;5.30;;;;;;;18.20;72.30;100792.66;5050844;28;20056;-79
2022/05/19 02:28:36;;;;;;;7.35;5.03;;;;;;;18.21;72.32;100784.50;5053364;28;20048;-78
2022/05/19 02:31:03;;;;;;;6.50;5.40;;;;;;;18.17;72.22;100791.06;5047819;28;20131;-79
2022/05/19 02:33:30;;;;;;;5.60;5.10;;;;;;;18.17;72.16;100788.38;5052897;28;20071;-79
2022/05/19 02:35:57;;;;;;;7.15;5.57;;;;;;;18.18;71.69;100786.56;5052943;28;20052;-80
2022/05/19 02:38:24;;;;;;;6.75;5.32;;;;;;;18.15;71.71;100784.09;5046933;28;20049;-79
2022/05/19 02:40:50;;;;;;;6.63;5.70;;;;;;;18.10;72.24;100786.28;5040333;28;20064;-78
2022/05/19 02:43:18;;;;;;;8.38;5.40;;;;;;;18.01;72.31;100786.91;5047105;28;20084;-79
2022/05/19 02:45:47;;;;;;;9.48;6.45;;;;;;;17.93;72.95;100784.78;5051931;28;20103;-78
2022/05/19 02:48:15;;;;;;;9.75;5.60;;;;;;;17.83;73.59;100784.56;5051116;28;20086;-78
2022/05/19 02:50:43;;;;;;;7.53;5.85;;;;;;;17.74;73.81;100782.56;5050052;28;20081;-78
2022/05/19 02:53:12;;;;;;;7.38;6.10;;;;;;;17.68;74.43;100782.97;5042645;28;20049;-79
2022/05/19 02:55:39;;;;;;;6.85;5.78;;;;;;;17.48;74.55;100760.22;5044501;28;20693;-78
2022/05/19 02:58:07;;;;;;;6.43;5.80;;;;;;;17.60;74.54;100779.97;5047215;28;20180;-80
2022/05/19 03:00:34;;;;;;;6.22;4.78;;;;;;;17.62;73.35;100778.03;5043579;28;20072;-79
2022/05/19 03:03:01;;;;;;;12.30;5.60;;;;;;;17.63;72.90;100766.34;5040470;28;20413;-79
2022/05/19 03:05:33;;;;;;;5.65;4.80;;;;;;;17.75;71.33;100770.88;5051243;28;20548;-78
2022/05/19 03:08:04;;;;;;;6.07;5.10;;;;;;;17.70;70.63;100748.06;5050252;28;20063;-77
2022/05/19 03:10:31;;;;;;;5.53;4.95;;;;;;;17.78;70.22;100757.28;5050692;28;20131;-76
2022/05/19 03:12:58;;;;;;;7.07;5.00;;;;;;;17.90;70.45;100773.44;5045100;28;20045;-77
2022/05/19 03:15:25;;;;;;;5.90;5.13;;;;;;;17.77;70.48;100747.53;5046965;28;20087;-78
2022/05/19 03:17:51;;;;;;;5.20;4.75;;;;;;;17.84;70.89;100777.41;5043934;28;20053;-79
2022/05/19 03:20:19;;;;;;;6.07;5.45;;;;;;;17.77;71.44;100774.31;5050624;28;20041;-76
2022/05/19 03:22:45;;;;;;;5.78;5.05;;;;;;;17.71;71.48;100769.38;5041196;28;20057;-80
2022/05/19 03:25:12;;;;;;;5.60;4.85;;;;;;;17.61;71.72;100752.22;5045837;28;20037;-76
2022/05/19 03:27:40;;;;;;;6.82;4.65;;;;;;;17.75;70.12;100765.53;5049881;28;20481;-78
2022/05/19 03:30:12;;;;;;;8.43;5.18;;;;;;;17.69;68.66;100747.19;5049584;28;20065;-77
2022/05/19 03:32:39;;;;;;;6.18;4.57;;;;;;;17.80;68.13;100757.13;5039402;28;20520;-77
2022/05/19 03:35:07;;;;;;;8.38;4.50;;;;;;;17.90;67.76;100762.72;5044012;28;20091;-78
2022/05/19 03:37:33;;;;;;;4.80;3.95;;;;;;;17.95;67.02;100763.22;5050052;28;20084;-76
2022/05/19 03:40:00;;;;;;;5.35;4.18;;;;;;;17.98;67.17;100760.31;5045547;28;20123;-77
2022/05/19 03:42:27;;;;;;;4.55;4.15;;;;;;;18.01;66.16;100749.41;5049762;28;20090;-79
2022/05/19 03:44:54;;;;;;;5.53;3.88;;;;;;;18.03;65.41;100752.81;5039901;28;20052;-77
2022/05/19 03:47:20;;;;;;;5.47;3.80;;;;;;;18.09;64.59;100761.28;5048224;28;20445;-78
2022/05/19 03:49:47;;;;;;;5.05;3.60;;;;;;;18.14;64.16;100756.44;5049642;28;20136;-77
2022/05/19 03:52:13;;;;;;;4.55;3.88;;;;;;;18.22;63.26;100755.88;5048848;28;20076;-78
2022/05/19 03:54:40;;;;;;;3.97;3.67;;;;;;;18.28;62.00;100744.69;5045965;28;20428;-77
2022/05/19 03:57:07;;;;;;;5.07;3.72;;;;;;;18.37;61.44;100751.22;5039591;28;20497;-78
2022/05/19 03:59:34;;;;;;;5.07;3.40;;;;;;;18.50;60.58;100752.88;5047880;28;20085;-77
2022/05/19 04:02:03;;;;;;;3.97;3.58;;;;;;;18.61;59.54;100748.56;5044226;28;20041;-76
2022/05/19 04:04:45;;;;;;;5.07;3.63;;;;;;;18.54;59.54;100727.56;5046465;28;20061;-77
2022/05/19 04:07:12;;;;;;;4.68;3.60;;;;;;;18.72;59.00;100748.63;5046820;28;20116;-76
2022/05/19 04:09:39;;;;;;;3.67;3.25;;;;;;;18.70;58.30;100742.53;5047471;28;20079;-77
2022/05/19 04:12:06;;;;;;;8.43;3.38;;;;;;;18.74;58.37;100752.03;5047010;28;20060;-77
2022/05/19 04:14:34;;;;;;;4.43;3.33;;;;;;;18.83;57.54;100772.81;5043434;28;20611;-78
2022/05/19 04:17:00;;;;;;;3.35;2.70;;;;;;;18.89;56.61;100775.03;5043590;28;20107;-78
2022/05/19 04:19:27;;;;;;;3.45;3.10;;;;;;;18.90;56.24;100766.00;5028560;28;20123;-78
2022/05/19 04:21:54;;;;;;;5.38;3.30;;;;;;;18.95;56.40;100766.53;5049528;28;20049;-78
2022/05/19 04:24:20;;;;;;;5.07;3.47;;;;;;;19.02;56.42;100769.63;5042394;28;20045;-78
2022/05/19 04:26:49;;;;;;;3.97;2.97;;;;;;;19.03;56.72;100771.31;5041086;28;20045;-78
2022/05/19 04:29:15;;;;;;;4.00;3.60;;;;;;;19.01;57.10;100760.69;5041007;28;20132;-76
2022/05/19 04:31:42;;;;;;;5.40;3.30;;;;;;;19.02;56.22;100759.72;5045496;28;20061;-78
2022/05/19 04:34:09;;;;;;;4.70;3.53;;;;;;;19.07;57.59;100767.41;5042359;28;20053;-78
2022/05/19 04:36:36;;;;;;;4.57;2.83;;;;;;;19.09;57.58;100773.53;5046003;28;20103;-78
2022/05/19 04:39:03;;;;;;;4.13;3.42;;;;;;;19.11;57.59;100777.81;5044771;28;20094;-77
2022/05/19 04:41:30;;;;;;;4.65;3.10;;;;;;;19.14;56.41;100782.94;5046628;28;20072;-77
2022/05/19 04:43:56;;;;;;;4.68;3.00;;;;;;;19.09;55.69;100768.16;5048557;28;20470;-77
2022/05/19 04:46:23;;;;;;;4.22;3.30;;;;;;;19.24;54.98;100786.63;5048650;28;20053;-79
2022/05/19 04:48:50;;;;;;;4.70;3.05;;;;;;;19.18;54.30;100770.16;5042349;28;20056;-79
2022/05/19 04:51:17;;;;;;;5.28;2.83;;;;;;;19.39;54.00;100799.84;5049792;28;20045;-78
2022/05/19 04:53:43;;;;;;;3.80;2.70;;;;;;;19.46;53.92;100793.88;5044479;28;20445;-79
2022/05/19 04:56:10;;;;;;;5.68;3.28;;;;;;;19.41;54.50;100776.41;5047541;28;20073;-80
2022/05/19 04:58:36;;;;;;;5.03;3.20;;;;;;;19.61;53.04;100794.56;5045022;28;20064;-77
2022/05/19 05:01:05;;;;;;;4.80;3.17;;;;;;;19.69;52.73;100791.25;5048947;28;20072;-78
2022/05/19 05:03:32;;;;;;;4.57;2.75;;;;;;;19.75;52.52;100793.47;5048854;28;20132;-78
2022/05/19 05:05:59;;;;;;;4.82;2.92;;;;;;;19.82;51.96;100789.34;5052196;28;20424;-81
2022/05/19 05:08:25;;;;;;;2.70;2.50;;;;;;;19.89;51.22;100787.84;5050340;28;20534;-78
2022/05/19 05:10:56;;;;;;;6.15;2.97;;;;;;;19.94;50.93;100780.28;5046803;28;20063;-78
2022/05/19 05:13:23;;;;;;;3.55;2.70;;;;;;;20.03;51.18;100776.84;5048344;28;20049;-78
2022/05/19 05:15:50;;;;;;;4.55;2.75;;;;;;;20.15;51.21;100788.44;5049000;28;20057;-76
2022/05/19 05:18:16;;;;;;;4.32;2.90;;;;;;;20.21;49.97;100787.97;5048008;28;20041;-78
2022/05/19 05:20:44;;;;;;;4.57;2.97;;;;;;;20.32;49.54;100796.00;5044861;28;20045;-79
2022/05/19 05:23:11;;;;;;;2.95;2.65;;;;;;;20.39;49.62;100797.25;5045445;28;20107;-78
2022/05/19 05:25:38;;;;;;;5.70;3.25;;;;;;;20.42;49.36;100793.47;5045648;28;20119;-79
2022/05/19 05:28:05;;;;;;;4.95;2.60;;;;;;;20.36;49.25;100781.38;5048798;28;20136;-80
2022/05/19 05:30:32;;;;;;;4.15;2.53;;;;;;;20.47;49.22;100797.47;5039799;28;20057;-78
2022/05/19 05:33:04;;;;;;;3.88;2.83;;;;;;;20.47;49.04;100783.16;5048686;28;20045;-80
2022/05/19 05:35:31;;;;;;;7.47;3.15;;;;;;;20.57;48.72;100786.84;5040665;28;20060;-80
2022/05/19 05:37:58;;;;;;;4.32;2.60;;;;;;;20.56;48.96;100787.81;5048726;28;20071;-79
2022/05/19 05:40:27;;;;;;;8.55;3.25;;;;;;;20.66;48.45;100792.28;5049184;28;20049;-78
2022/05/19 05:42:54;;;;;;;5.50;2.63;;;;;;;20.71;48.27;100789.22;5044582;28;20130;-78
2022/05/19 05:45:21;;;;;;;4.47;2.90;;;;;;;20.75;48.63;100787.16;5052276;28;20459;-78
2022/05/19 05:47:48;;;;;;;3.92;2.80;;;;;;;20.73;47.83;100772.97;5051893;28;20107;-80
2022/05/19 05:50:16;;;;;;;4.63;3.03;;;;;;;20.91;47.43;100793.81;5051721;28;20056;-77
2022/05/19 05:52:42;;;;;;;6.30;3.42;;;;;;;20.88;48.65;100798.59;5045663;28;20061;-77
2022/05/19 05:55:10;;;;;;;6.90;3.50;;;;;;;20.90;47.97;100797.50;5051439;28;20052;-77
2022/05/19 05:57:36;;;;;;;7.00;3.20;;;;;;;20.94;47.46;100788.16;5050490;28;20040;-79
2022/05/19 06:00:07;;;;;;;4.28;2.72;;;;;;;21.07;46.47;100798.78;5045290;28;20072;-79
2022/05/19 06:02:34;;;;;;;8.05;2.97;;;;;;;21.09;46.74;100802.19;5047681;28;20135;-78
2022/05/19 06:05:07;;;;;;;5.90;2.85;;;;;;;21.23;46.21;100812.69;5051664;28;20044;-77
2022/05/19 06:07:34;;;;;;;5.63;3.05;;;;;;;21.29;46.76;100812.13;5051981;28;20516;-77
2022/05/19 06:10:01;;;;;;;5.13;3.00;;;;;;;21.31;45.74;100812.00;5051823;28;20421;-76
2022/05/19 06:12:28;;;;;;;7.85;2.88;;;;;;;21.33;45.20;100789.34;5044260;28;20045;-79
2022/05/19 06:14:56;;;;;;;3.30;2.58;;;;;;;21.63;44.54;100811.94;5047132;28;20056;-79
2022/05/19 06:17:24;;;;;;;5.30;2.60;;;;;;;21.78;43.55;100809.75;5037678;28;20045;-79
2022/05/19 06:19:51;;;;;;;3.58;2.40;;;;;;;22.05;43.13;100804.66;5051688;28;20049;-79
2022/05/19 06:22:19;;;;;;;3.85;2.67;;;;;;;22.36;42.73;100805.47;5050040;28;20092;-81
2022/05/19 06:24:45;;;;;;;6.05;2.85;;;;;;;22.53;42.24;100796.72;5050947;28;20052;-79
2022/05/19 06:27:12;;;;;;;4.07;2.70;;;;;;;22.90;42.01;100788.84;5044285;28;20060;-78
2022/05/19 06:29:39;;;;;;;4.18;2.50;;;;;;;23.43;40.28;100805.47;5051586;28;20053;-78
2022/05/19 06:32:06;;;;;;;8.38;2.53;;;;;;;23.88;39.82;100803.94;5048138;28;20136;-79
2022/05/19 06:34:34;;;;;;;6.18;2.50;;;;;;;24.20;38.96;100781.88;5049249;28;20045;-78
2022/05/19 06:37:02;;;;;;;8.20;3.88;;;;;;;24.67;39.13;100798.88;5032378;28;20148;-78
2022/05/19 06:39:29;;;;;;;5.97;2.80;;;;;;;24.80;37.41;100783.94;5043548;28;20049;-77
2022/05/19 06:42:02;;;;;;;4.68;2.75;;;;;;;25.13;37.49;100797.84;5048920;28;20067;-79
2022/05/19 06:44:36;;;;;;;3.63;2.55;;;;;;;25.42;36.70;100794.84;5058845;28;20041;-79
2022/05/19 06:47:10;;;;;;;4.72;2.92;;;;;;;25.59;36.49;100788.53;5060407;28;20038;-79
2022/05/19 06:49:36;;;;;;;3.53;2.63;;;;;;;25.69;36.01;100785.72;5047173;28;20041;-78
2022/05/19 06:52:04;;;;;;;3.83;2.45;;;;;;;25.83;35.75;100790.56;5051054;28;20052;-81
2022/05/19 06:54:30;;;;;;;6.47;2.70;;;;;;;25.75;35.64;100777.81;5049520;28;20060;-76
2022/05/19 06:56:57;;;;;;;4.88;2.60;;;;;;;25.67;37.04;100787.75;5039709;28;20041;-79
2022/05/19 06:59:24;;;;;;;3.85;2.20;;;;;;;25.78;35.57;100782.06;5046636;28;20049;-77
2022/05/19 07:01:51;;;;;;;7.35;2.47;;;;;;;25.97;34.85;100794.56;5044123;28;20049;-78
2022/05/19 07:04:17;;;;;;;3.72;2.30;;;;;;;25.91;35.97;100787.91;5046547;28;20433;-80
2022/05/19 07:06:43;;;;;;;3.00;2.15;;;;;;;26.29;35.20;100800.16;5039802;28;20096;-80
2022/05/19 07:09:11;;;;;;;4.85;2.35;;;;;;;26.48;34.42;100805.31;5041007;28;20511;-81
2022/05/19 07:11:38;;;;;;;4.00;2.80;;;;;;;26.62;34.20;100800.25;5042080;28;20041;-80
2022/05/19 07:14:07;;;;;;;5.05;2.10;;;;;;;26.87;33.45;100802.88;5040979;28;20095;-81
2022/05/19 07:16:34;;;;;;;3.17;2.15;;;;;;;27.02;33.19;100791.38;5048869;28;20103;-78
2022/05/19 07:21:50;;;;;;;3.33;1.80;;;;;;;27.15;32.08;100786.28;5022481;28;20045;-81
2022/05/19 07:24:20;;;;;;;4.20;2.00;;;;;;;27.14;32.03;100780.00;5048585;28;20513;-81
2022/05/19 07:26:49;;;;;;;3.28;2.15;;;;;;;27.28;31.47;100786.59;5047182;28;20069;-80
2022/05/19 07:29:18;;;;;;;3.38;1.90;;;;;;;27.30;31.26;100790.00;5042150;28;20068;-80
2022/05/19 07:31:49;;;;;;;4.10;2.00;;;;;;;27.08;32.97;100787.97;5040566;28;20045;-81
2022/05/19 07:34:18;;;;;;;6.53;2.20;;;;;;;27.07;31.85;100795.28;5043837;28;20067;-81
2022/05/19 07:36:45;;;;;;;6.45;2.10;;;;;;;26.90;31.62;100766.38;5049505;28;20056;-79
2022/05/19 07:39:12;;;;;;;2.90;1.77;;;;;;;26.87;32.13;100763.97;5041157;28;20049;-80
2022/05/19 07:41:40;;;;;;;2.35;1.98;;;;;;;26.88;32.12;100752.94;5046735;28;20049;-81
2022/05/19 07:44:07;;;;;;;3.67;1.60;;;;;;;27.09;32.65;100776.91;5043305;28;20064;-78
2022/05/19 07:46:36;;;;;;;3.45;2.00;;;;;;;26.96;32.20;100764.84;5046538;28;20049;-80
2022/05/19 07:49:03;;;;;;;1.98;1.65;;;;;;;27.03;32.38;100763.19;5047339;28;20095;-81
2022/05/19 07:51:36;;;;;;;2.70;1.70;;;;;;;27.30;31.50;100764.69;5050368;28;20135;-80
2022/05/19 07:54:05;;;;;;;3.42;1.60;;;;;;;27.40;31.89;100763.47;5028066;28;20063;-79
2022/05/19 07:56:32;;;;;;;4.25;1.60;;;;;;;27.43;31.01;100744.09;5047368;28;20110;-80
2022/05/19 07:59:00;;;;;;;2.90;2.20;;;;;;;27.34;31.19;100752.47;5045274;28;20041;-80
2022/05/19 08:01:27;;;;;;;2.50;1.90;;;;;;;27.41;31.40;100765.19;5043158;28;20049;-79
2022/05/19 08:03:54;;;;;;;2.55;1.77;;;;;;;27.39;32.00;100756.34;5050556;28;20053;-80
2022/05/19 08:06:21;;;;;;;3.67;1.90;;;;;;;27.14;32.43;100752.81;5043858;28;20098;-78
2022/05/19 08:08:48;;;;;;;5.35;1.70;;;;;;;27.19;31.67;100749.59;5032132;28;20052;-78
2022/05/19 08:11:14;;;;;;;3.45;1.75;;;;;;;27.23;31.61;100735.44;5044177;28;20073;-79
2022/05/19 08:16:26;;;;;;;3.28;2.13;;;;;;;26.87;32.48;100736.81;5042492;28;20049;-78
2022/05/19 08:18:53;;;;;;;2.85;2.00;;;;;;;27.13;32.72;100734.78;5047643;28;20057;-80
2022/05/19 08:21:21;;;;;;;2.60;1.90;;;;;;;27.40;31.21;100724.56;5042147;28;20050;-79
2022/05/19 08:23:52;;;;;;;1.92;1.70;;;;;;;27.72;30.82;100740.84;5047280;28;20045;-79
2022/05/19 08:26:21;;;;;;;4.45;1.88;;;;;;;28.03;31.13;100738.16;5048302;28;20541;-79
2022/05/19 08:28:49;;;;;;;2.97;1.73;;;;;;;28.09;31.16;100733.91;5047240;28;20484;-79
2022/05/19 08:31:22;;;;;;;4.05;2.70;;;;;;;28.37;31.04;100756.94;5050705;28;20127;-81
2022/05/19 08:33:54;;;;;;;4.80;2.17;;;;;;;28.01;30.08;100723.91;5039425;28;20068;-81
2022/05/19 08:36:24;;;;;;;3.70;2.00;;;;;;;27.31;31.96;100741.91;5046495;28;20553;-79
2022/05/19 08:38:51;;;;;;;2.30;1.90;;;;;;;27.06;32.48;100754.69;5044889;28;20053;-79
2022/05/19 08:41:31;;;;;;;4.00;1.88;;;;;;;27.28;32.23;100751.25;5043089;28;20069;-80
2022/05/19 08:44:03;;;;;;;4.57;2.08;;;;;;;27.58;33.22;100744.28;5046121;28;20068;-78
2022/05/19 08:46:39;;;;;;;7.38;2.30;;;;;;;27.02;33.44;100747.88;5045490;28;20128;-78
2022/05/19 08:49:12;;;;;;;4.07;1.98;;;;;;;26.60;33.33;100762.44;5043581;28;20045;-79
2022/05/19 08:51:48;;;;;;;3.70;1.88;;;;;;;26.56;34.20;100758.34;5045738;28;20046;-78
2022/05/19 08:54:20;;;;;;;2.40;1.67;;;;;;;27.12;32.06;100748.56;5043917;28;20072;-78
2022/05/19 08:57:07;;;;;;;2.28;1.40;;;;;;;27.74;31.24;100746.94;5041618;28;20119;-78
2022/05/19 08:59:38;;;;;;;3.15;1.83;;;;;;;27.44;32.00;100740.38;5044018;28;20077;-79
2022/05/19 09:02:16;;;;;;;4.10;1.90;;;;;;;27.08;32.67;100729.00;5043606;28;20100;-79
2022/05/19 09:05:13;;;;;;;5.22;1.95;;;;;;;27.26;31.96;100739.69;5041492;28;20046;-79
2022/05/19 09:07:57;;;;;;;3.72;1.90;;;;;;;27.48;32.82;100741.72;5043990;28;20057;-77
2022/05/19 09:10:51;;;;;;;2.40;2.00;;;;;;;27.25;33.36;100744.28;5047659;28;20053;-78
2022/05/19 09:13:43;;;;;;;2.00;1.50;;;;;;;27.47;32.18;100750.06;5039437;28;20136;-78
2022/05/19 09:16:16;;;;;;;2.92;2.03;;;;;;;27.56;32.71;100752.59;5051513;28;20370;-78
2022/05/19 09:19:16;;;;;;;3.63;2.00;;;;;;;27.51;33.00;100733.22;5054837;28;20045;-78
2022/05/19 09:21:45;;;;;;;3.25;1.73;;;;;;;27.68;32.53;100734.06;5028400;28;20108;-78
2022/05/19 09:24:12;;;;;;;2.97;2.03;;;;;;;27.50;34.07;100744.28;5049917;28;20108;-78
2022/05/19 09:26:52;;;;;;;5.30;2.20;;;;;;;27.01;33.72;100735.31;5044890;28;20113;-78
2022/05/19 09:29:29;;;;;;;3.90;2.10;;;;;;;26.94;34.52;100734.28;5052976;28;20472;-79
2022/05/19 09:32:34;;;;;;;3.47;1.98;;;;;;;27.27;33.92;100729.69;5050980;28;20061;-79
2022/05/19 09:35:23;;;;;;;4.00;2.08;;;;;;;27.56;33.08;100739.00;5030329;28;20519;-79
2022/05/19 09:38:03;;;;;;;4.90;1.77;;;;;;;27.74;32.72;100741.50;5046138;28;20140;-78
2022/05/19 09:40:33;;;;;;;4.25;1.80;;;;;;;27.81;33.29;100737.09;5051881;28;20063;-79
2022/05/19 09:43:27;;;;;;;;;;;;;;;27.88;33.55;100735.34;5053495;28;20136;-79
2022/05/19 09:46:07;;;;;;;1.88;1.70;;;;;;;28.02;33.38;100709.25;5039903;28;20361;-78
2022/05/19 09:48:36;;;;;;;6.82;2.40;;;;;;;27.29;34.47;100723.06;5029415;28;20129;-81
2022/05/19 09:51:10;;;;;;;3.97;2.03;;;;;;;27.18;34.07;100704.38;5048872;28;20420;-77
2022/05/19 09:53:40;;;;;;;2.25;1.70;;;;;;;27.59;33.98;100730.50;5049646;28;20049;-79
2022/05/19 09:56:14;;;;;;;6.72;2.10;;;;;;;27.97;33.37;100724.44;5050139;28;20516;-78
2022/05/19 09:58:46;;;;;;;8.90;2.53;;;;;;;28.22;33.57;100704.25;5051031;28;20055;-78
2022/05/19 10:01:33;;;;;;;;;;;;;;;28.60;33.37;100735.19;5051528;28;20069;-78
2022/05/19 10:04:07;;;;;;;5.72;2.10;;;;;;;28.25;32.51;100718.38;5050816;28;19928;-78
2022/05/19 10:06:54;;;;;;;10.10;2.58;;;;;;;27.81;33.77;100720.75;5026197;28;20041;-78
2022/05/19 10:09:29;;;;;;;5.18;2.30;;;;;;;28.09;32.98;100721.13;5044892;28;20052;-79
2022/05/19 10:12:10;;;;;;;2.83;1.80;;;;;;;28.45;33.02;100709.75;5047031;28;20049;-77
2022/05/19 10:14:36;;;;;;;3.47;2.10;;;;;;;28.62;32.60;100684.09;5044748;28;20051;-78
2022/05/19 10:17:21;;;;;;;2.35;2.00;;;;;;;28.30;33.31;100703.38;5051802;28;20041;-77
2022/05/19 10:20:15;;;;;;;4.80;1.98;;;;;;;28.03;33.80;100702.78;5042104;28;20551;-79
2022/05/19 10:22:57;;;;;;;3.38;2.10;;;;;;;28.22;33.73;100682.47;5032669;28;20081;-77
2022/05/19 10:26:01;;;;;;;4.03;2.50;;;;;;;28.77;32.46;100704.06;5049294;28;20053;-78
2022/05/19 10:31:51;;;;;;;5.90;2.13;;;;;;;29.48;31.27;100694.56;5047725;28;20091;-76
2022/05/19 10:34:52;;;;;;;4.53;2.45;;;;;;;29.71;30.83;100693.66;5042624;28;20075;-78
2022/05/19 10:37:24;;;;;;;4.25;2.25;;;;;;;29.83;31.05;100679.31;5051498;28;20037;-79
2022/05/19 10:40:21;;;;;;;9.52;2.50;;;;;;;29.28;34.25;100642.41;5048219;28;20059;-79
2022/05/19 10:43:20;;;;;;;3.70;2.00;;;;;;;28.34;35.20;100667.41;5045308;28;20096;-80
2022/05/19 10:45:49;;;;;;;6.35;2.53;;;;;;;28.21;34.77;100665.28;5046250;28;20057;-80
2022/05/19 10:48:22;;;;;;;5.72;2.35;;;;;;;28.57;33.64;100664.69;5051859;28;20047;-82
2022/05/19 10:50:57;;;;;;;5.43;2.17;;;;;;;28.65;33.60;100642.00;5051226;28;20069;-82
2022/05/19 10:53:32;;;;;;;2.72;2.20;;;;;;;28.41;33.96;100640.31;5053146;28;20045;-84
2022/05/19 10:56:19;;;;;;;3.95;2.20;;;;;;;28.05;34.97;100632.66;5049430;28;20045;-80
2022/05/19 10:59:07;;;;;;;3.47;2.38;;;;;;;28.55;34.00;100634.06;5045763;28;20127;-80
2022/05/19 11:02:04;;;;;;;3.50;2.58;;;;;;;29.31;32.93;100642.03;5043695;28;20493;-77
2022/05/19 11:04:55;;;;;;;5.32;2.60;;;;;;;29.73;33.01;100642.44;5050522;28;20044;-80
2022/05/19 11:07:30;;;;;;;2.88;2.42;;;;;;;29.90;31.89;100635.75;5051313;28;20064;-79
2022/05/19 11:10:15;;;;;;;3.88;2.25;;;;;;;30.14;31.62;100640.88;5049571;28;20192;-79
2022/05/19 11:12:48;;;;;;;4.18;2.40;;;;;;;30.02;32.61;100639.69;5044052;28;20060;-78
2022/05/19 11:15:25;;;;;;;4.75;3.08;;;;;;;29.65;32.98;100608.75;5028912;28;20052;-78
2022/05/19 11:18:21;;;;;;;4.85;2.60;;;;;;;29.51;33.28;100630.59;5044320;28;20489;-78
2022/05/19 11:21:13;;;;;;;5.65;2.90;;;;;;;29.25;33.26;100633.78;5039589;28;20191;-77
2022/05/19 11:24:09;;;;;;;4.50;2.42;;;;;;;29.22;34.51;100623.22;5040702;28;20493;-77
2022/05/19 11:26:47;;;;;;;6.38;2.97;;;;;;;29.44;34.05;100627.75;5041384;28;20106;-77
2022/05/19 11:29:31;;;;;;;4.53;3.08;;;;;;;29.63;34.24;100607.25;5050108;28;20048;-79
2022/05/19 11:32:22;;;;;;;7.25;3.17;;;;;;;29.99;32.73;100621.78;5047164;28;20328;-77
2022/05/19 11:35:27;;;;;;;10.18;3.10;;;;;;;30.12;32.42;100620.25;5042942;28;20495;-77
2022/05/19 11:38:06;;;;;;;6.63;3.00;;;;;;;30.09;33.18;100624.22;5036532;28;20409;-78
2022/05/19 11:41:00;;;;;;;4.50;2.88;;;;;;;30.17;33.18;100617.78;5040602;28;20443;-77
2022/05/19 11:43:40;;;;;;;4.90;2.45;;;;;;;30.08;33.08;100618.94;5042200;28;20072;-78
2022/05/19 11:46:34;;;;;;;5.93;2.75;;;;;;;29.66;34.34;100615.91;5046230;28;20152;-77
2022/05/19 11:55:19;;;;;;;5.07;3.08;;;;;;;28.75;35.60;100602.56;5047862;28;20041;-79
2022/05/19 11:58:20;;;;;;;4.75;3.22;;;;;;;28.56;36.67;100608.50;5056450;28;20076;-79
2022/05/19 12:00:50;;;;;;;8.18;3.13;;;;;;;28.85;36.94;100608.59;5022165;28;20049;-79
2022/05/19 12:03:34;;;;;;;6.68;3.22;;;;;;;28.77;35.90;100586.88;5044234;28;20050;-77
2022/05/19 12:06:10;;;;;;;6.28;2.95;;;;;;;28.99;36.27;100604.22;5041481;28;20132;-79
2022/05/19 12:08:44;;;;;;;5.60;3.13;;;;;;;29.52;34.85;100596.81;5045154;28;20397;-78
2022/05/19 12:11:27;;;;;;;5.35;2.70;;;;;;;30.09;34.48;100591.44;5042642;28;20132;-78